createdAt,value
2022-09-05T00:04:34.243Z,14.52
2022-09-05T00:09:37.725Z,13.00
2022-09-05T00:15:15.980Z,13.88
2022-09-05T00:24:23.410Z,13.95
2022-09-05T00:26:11.140Z,13.93
2022-09-05T00:31:55.843Z,13.15
2022-09-05T00:36:58.839Z,14.43
2022-09-05T00:42:16.199Z,14.35
2022-09-05T00:47:38.061Z,14.18
2022-09-05T00:53:13.940Z,13.75
2022-09-05T00:58:48.151Z,15.25
2022-09-05T01:04:22.252Z,15.18
2022-09-05T01:09:38.708Z,15.48
2022-09-05T01:15:05.339Z,16.08
2022-09-05T01:20:19.498Z,17.25
2022-09-05T01:25:47.070Z,17.20
2022-09-05T01:31:14.507Z,18.13
2022-09-05T01:36:38.472Z,20.85
2022-09-05T01:41:54.733Z,20.10
2022-09-05T01:47:30.928Z,20.73
2022-09-05T01:53:06.348Z,19.55
2022-09-05T01:58:16.587Z,21.30
2022-09-05T02:03:38.043Z,20.58
2022-09-05T02:09:11.304Z,20.02
2022-09-05T02:14:28.804Z,20.65
2022-09-05T02:19:53.539Z,18.92
2022-09-05T02:25:18.138Z,19.40
2022-09-05T02:31:00.363Z,20.00
2022-09-05T02:36:39.362Z,18.60
2022-09-05T02:45:06.487Z,19.40
2022-09-05T02:47:21.594Z,18.45
2022-09-05T02:57:43.270Z,17.98
2022-09-05T02:58:07.447Z,17.73
2022-09-05T03:03:39.771Z,17.77
2022-09-05T03:09:16.921Z,16.17
2022-09-05T03:14:47.319Z,15.20
2022-09-05T03:20:09.451Z,14.65
2022-09-05T03:25:45.419Z,15.20
2022-09-05T03:31:20.558Z,15.38
2022-09-05T03:36:47.068Z,16.10
2022-09-05T03:42:02.768Z,14.93
2022-09-05T03:47:33.762Z,15.10
2022-09-05T03:57:08.254Z,14.77
2022-09-05T03:58:57.407Z,14.30
2022-09-05T04:08:09.579Z,13.98
2022-09-05T04:09:51.130Z,14.95
2022-09-05T04:15:13.527Z,14.10
2022-09-05T04:20:41.515Z,12.95
2022-09-05T04:26:09.261Z,12.35
2022-09-05T04:31:35.292Z,12.15
2022-09-05T04:36:41.573Z,11.02
2022-09-05T04:41:56.796Z,11.93
2022-09-05T04:47:10.447Z,12.38
2022-09-05T04:53:01.195Z,11.50
2022-09-05T04:58:53.496Z,11.15
2022-09-05T05:06:11.747Z,10.07
2022-09-05T05:09:21.528Z,10.55
2022-09-05T05:18:03.937Z,10.50
2022-09-05T05:20:42.970Z,8.45
2022-09-05T05:25:53.689Z,9.32
2022-09-05T05:31:15.469Z,11.02
2022-09-05T05:36:25.815Z,8.40
2022-09-05T05:41:49.883Z,8.80
2022-09-05T05:46:58.830Z,7.65
2022-09-05T05:52:24.005Z,8.45
2022-09-05T05:57:42.541Z,7.97
2022-09-05T06:03:26.655Z,7.47
2022-09-05T06:11:20.438Z,5.40
2022-09-05T06:15:09.370Z,6.82
2022-09-05T06:22:05.392Z,7.50
2022-09-05T06:25:57.253Z,5.90
2022-09-05T06:31:31.478Z,6.82
2022-09-05T06:36:59.021Z,7.18
2022-09-05T06:42:42.605Z,6.00
2022-09-05T06:47:51.361Z,6.38
2022-09-05T06:53:20.919Z,5.63
2022-09-05T06:58:54.454Z,5.57
2022-09-05T07:05:23.482Z,5.82
2022-09-05T07:10:16.776Z,6.30
2022-09-05T07:15:55.487Z,5.60
2022-09-05T07:21:18.282Z,6.38
2022-09-05T07:26:51.774Z,6.00
2022-09-05T07:31:59.897Z,6.18
2022-09-05T07:37:44.959Z,4.90
2022-09-05T07:43:09.509Z,5.07
2022-09-05T07:48:34.524Z,5.03
2022-09-05T07:57:03.984Z,4.63
2022-09-05T07:59:08.941Z,5.60
2022-09-05T08:04:35.314Z,5.03
2022-09-05T08:10:10.168Z,4.13
2022-09-05T08:15:20.780Z,4.90
2022-09-05T08:20:46.263Z,4.78
2022-09-05T08:26:07.395Z,5.22
2022-09-05T08:31:20.639Z,4.77
2022-09-05T08:36:33.389Z,6.05
2022-09-05T08:42:03.358Z,5.13
2022-09-05T08:47:23.559Z,4.88
2022-09-05T08:52:45.970Z,4.47
2022-09-05T08:58:38.251Z,4.82
2022-09-05T09:04:11.481Z,5.25
2022-09-05T09:09:28.279Z,5.57
2022-09-05T09:14:52.384Z,12.73
2022-09-05T09:20:31.494Z,6.63
2022-09-05T09:26:17.771Z,7.50
2022-09-05T09:31:37.089Z,4.10
2022-09-05T09:37:18.751Z,4.88
2022-09-05T09:42:58.753Z,5.15
2022-09-05T09:48:10.973Z,4.20
2022-09-05T09:53:37.105Z,5.22
2022-09-05T09:59:05.677Z,4.07
2022-09-05T10:10:38.562Z,4.18
2022-09-05T10:16:09.744Z,4.63
2022-09-05T10:21:33.775Z,4.00
2022-09-05T10:27:04.409Z,7.15
2022-09-05T10:34:26.812Z,5.90
2022-09-05T10:38:10.142Z,4.65
2022-09-05T10:43:26.006Z,3.78
2022-09-05T10:48:53.640Z,4.03
2022-09-05T10:54:08.202Z,4.43
2022-09-05T11:02:19.199Z,6.43
2022-09-05T11:05:31.010Z,5.10
2022-09-05T11:10:50.168Z,4.60
2022-09-05T11:16:14.415Z,6.15
2022-09-05T11:21:38.046Z,6.13
2022-09-05T11:27:24.899Z,5.45
2022-09-05T11:36:06.839Z,5.35
2022-09-05T11:40:08.377Z,4.18
2022-09-05T11:43:42.065Z,4.38
2022-09-05T11:49:08.174Z,4.13
2022-09-05T11:54:39.583Z,4.20
2022-09-05T12:00:10.674Z,5.70
2022-09-05T12:06:00.121Z,4.32
2022-09-05T12:11:32.587Z,4.53
2022-09-05T12:16:54.526Z,4.60
2022-09-05T12:22:26.949Z,6.93
2022-09-05T12:27:45.658Z,5.60
2022-09-05T12:36:01.834Z,5.55
2022-09-05T12:40:35.601Z,6.68
2022-09-05T12:44:39.834Z,8.48
2022-09-05T12:49:52.461Z,4.15
2022-09-05T12:55:23.178Z,4.22
2022-09-05T13:03:04.683Z,4.38
2022-09-05T13:06:25.261Z,4.90
2022-09-05T13:15:00.652Z,5.05
2022-09-05T13:17:00.532Z,5.72
2022-09-05T13:22:05.958Z,5.47
2022-09-05T13:27:14.981Z,5.95
2022-09-05T13:37:55.827Z,5.25
2022-09-05T13:38:48.295Z,5.53
2022-09-05T13:43:50.808Z,5.85
2022-09-05T13:49:30.894Z,6.13
2022-09-05T13:54:48.785Z,6.72
2022-09-05T14:00:26.675Z,6.22
2022-09-05T14:05:37.868Z,6.20
2022-09-05T14:10:58.647Z,6.25
2022-09-05T14:16:08.829Z,7.15
2022-09-05T14:21:14.472Z,6.85
2022-09-05T14:26:27.973Z,5.90
2022-09-05T14:35:49.973Z,6.57
2022-09-05T14:37:48.806Z,6.50
2022-09-05T14:42:49.324Z,7.07
2022-09-05T14:48:15.591Z,6.55
2022-09-05T15:02:53.203Z,6.40
2022-09-05T15:11:25.413Z,7.22
2022-09-05T15:15:25.540Z,7.05
2022-09-05T15:20:32.629Z,7.45
2022-09-05T15:26:03.383Z,7.90
2022-09-05T15:31:10.495Z,6.88
2022-09-05T15:36:30.037Z,7.03
2022-09-05T15:41:38.036Z,7.68
2022-09-05T15:46:51.235Z,8.13
2022-09-05T15:51:59.162Z,8.18
2022-09-05T15:57:06.889Z,8.05
2022-09-05T16:02:18.968Z,7.90
2022-09-05T16:12:54.290Z,8.93
2022-09-05T16:23:14.855Z,8.52
2022-09-05T16:24:04.189Z,9.15
2022-09-05T16:29:26.969Z,8.10
2022-09-05T16:34:46.623Z,8.38
2022-09-05T16:39:57.083Z,8.82
2022-09-05T16:45:10.085Z,9.50
2022-09-05T16:50:47.424Z,9.15
2022-09-05T16:56:16.713Z,8.65
2022-09-05T17:01:54.881Z,9.27
2022-09-05T17:07:16.709Z,8.55
2022-09-05T17:12:28.940Z,9.82
2022-09-05T17:18:21.938Z,9.05
2022-09-05T17:29:11.420Z,9.52
2022-09-05T17:29:31.261Z,8.90
2022-09-05T17:34:58.759Z,9.60
2022-09-05T17:40:46.031Z,9.13
2022-09-05T17:45:54.738Z,9.60
2022-09-05T17:50:58.130Z,9.70
2022-09-05T17:56:04.664Z,9.10
2022-09-05T18:01:19.924Z,9.77
2022-09-05T18:06:36.038Z,10.07
2022-09-05T18:12:03.015Z,10.15
2022-09-05T18:17:38.198Z,10.25
2022-09-05T18:22:47.602Z,10.13
2022-09-05T18:28:39.011Z,9.98
2022-09-05T18:39:38.494Z,9.82
2022-09-05T18:44:46.978Z,10.10
2022-09-05T18:50:26.523Z,9.88
2022-09-05T18:55:52.662Z,10.60
2022-09-05T19:00:51.726Z,10.57
2022-09-05T19:06:34.582Z,11.40
2022-09-05T19:11:32.423Z,12.30
2022-09-05T19:16:43.642Z,11.63
2022-09-05T19:21:57.240Z,12.30
2022-09-05T19:28:58.402Z,12.98
2022-09-05T19:36:52.544Z,12.88
2022-09-05T19:38:12.762Z,13.30
2022-09-05T19:47:35.372Z,13.38
2022-09-05T19:48:42.805Z,12.93
2022-09-05T19:54:05.047Z,14.02
2022-09-05T19:59:24.900Z,14.23
2022-09-05T20:04:33.643Z,14.57
2022-09-05T20:09:43.135Z,15.02
2022-09-05T20:14:46.749Z,14.18
2022-09-05T20:20:10.155Z,15.38
2022-09-05T20:25:35.955Z,14.82
2022-09-05T20:30:48.654Z,16.25
2022-09-05T20:43:10.521Z,15.77
2022-09-05T20:43:35.737Z,15.52
2022-09-05T20:50:38.715Z,16.88
2022-09-05T20:54:15.846Z,16.73
2022-09-05T20:58:24.708Z,15.75
2022-09-05T21:03:40.840Z,16.10
2022-09-05T21:08:53.339Z,14.68
2022-09-05T21:14:01.742Z,15.65
2022-09-05T21:19:05.465Z,16.83
2022-09-05T21:24:16.473Z,16.05
2022-09-05T21:29:33.198Z,15.65
2022-09-05T21:34:50.758Z,15.75
2022-09-05T21:39:59.244Z,15.02
2022-09-05T21:47:48.432Z,15.70
2022-09-05T21:50:42.853Z,15.27
2022-09-05T21:59:29.609Z,15.93
2022-09-05T22:01:10.346Z,15.60
2022-09-05T22:06:16.083Z,15.45
2022-09-05T22:11:20.029Z,16.30
2022-09-05T22:16:24.551Z,16.30
2022-09-05T22:21:34.603Z,15.30
2022-09-05T22:27:11.815Z,15.00
2022-09-05T22:32:06.786Z,16.13
2022-09-05T22:37:10.442Z,15.43
2022-09-05T22:42:13.920Z,16.23
2022-09-05T22:47:17.193Z,16.17
2022-09-05T22:52:20.581Z,15.57
2022-09-05T22:57:24.490Z,15.35
2022-09-05T23:02:28.112Z,17.33
2022-09-05T23:07:31.779Z,16.98
2022-09-05T23:12:37.064Z,15.90
2022-09-05T23:17:41.350Z,16.27
2022-09-05T23:22:45.386Z,15.05
2022-09-05T23:27:49.535Z,16.25
2022-09-05T23:32:53.823Z,15.90
2022-09-05T23:37:57.148Z,16.63
2022-09-05T23:43:00.884Z,16.38
2022-09-05T23:48:04.274Z,16.90
2022-09-05T23:53:07.773Z,16.25
2022-09-05T23:58:12.117Z,17.45
